Time;durP1;ratioP1;P1;durP2;ratioP2;P2;SDS_P1;SDS_P2;PMS_P1;PMS_P2;Temp;Humidity;BMP_temperature;BMP_pressure;BME280_temperature;BME280_humidity;BME280_pressure;Samples;Min_cycle;Max_cycle;Signal;HPM_P1;HPM_P2
2022/10/05 00:02:18;;;;;;;0.20;0.20;;;15.80;99.90;;;;;;5037339;28;20484;-74
2022/10/05 00:04:45;;;;;;;0.20;0.20;;;15.80;99.90;;;;;;5034912;28;20046;-74
2022/10/05 00:07:19;;;;;;;0.17;0.17;;;15.80;99.90;;;;;;5051729;28;20063;-73
2022/10/05 00:09:51;;;;;;;0.10;0.10;;;15.80;99.90;;;;;;5046138;28;20378;-74
2022/10/05 00:12:19;;;;;;;0.20;0.20;;;15.70;99.90;;;;;;5067456;28;20056;-73
2022/10/05 00:14:46;;;;;;;0.15;0.15;;;15.70;99.90;;;;;;5070016;28;20048;-74
2022/10/05 00:17:18;;;;;;;0.20;0.20;;;15.80;99.90;;;;;;5045007;28;20098;-74
2022/10/05 00:19:45;;;;;;;0.10;0.10;;;15.80;99.90;;;;;;5062942;28;20052;-75
2022/10/05 00:22:22;;;;;;;0.15;0.15;;;15.70;99.90;;;;;;5049795;28;20036;-74
2022/10/05 00:24:59;;;;;;;0.13;0.13;;;15.80;99.90;;;;;;5070029;28;20036;-72
2022/10/05 00:27:31;;;;;;;0.20;0.20;;;15.80;99.90;;;;;;5082411;28;20400;-73
2022/10/05 00:30:01;;;;;;;0.10;0.10;;;15.80;99.90;;;;;;5068970;28;20442;-74
2022/10/05 00:32:26;;;;;;;0.20;0.20;;;15.80;99.90;;;;;;5051971;28;20051;-74
2022/10/05 00:34:52;;;;;;;0.17;0.17;;;15.80;99.90;;;;;;5053285;28;20056;-74
2022/10/05 00:37:18;;;;;;;0.20;0.20;;;15.80;99.90;;;;;;5056391;28;20137;-74
2022/10/05 00:39:44;;;;;;;0.20;0.20;;;15.70;99.90;;;;;;5054257;28;21038;-74
2022/10/05 00:42:21;;;;;;;0.20;0.20;;;15.80;99.90;;;;;;5050816;28;20044;-74
2022/10/05 00:44:53;;;;;;;0.10;0.10;;;15.80;99.90;;;;;;5061270;28;20568;-74
2022/10/05 00:48:03;;;;;;;0.20;0.20;;;15.80;99.90;;;;;;5047683;28;20082;-73
2022/10/05 00:51:15;;;;;;;0.20;0.20;;;15.80;99.90;;;;;;5033361;28;20063;-74
2022/10/05 00:54:22;;;;;;;0.15;0.15;;;15.80;99.90;;;;;;5026981;28;20052;-74
2022/10/05 00:57:12;;;;;;;0.20;0.20;;;15.70;99.90;;;;;;5033796;28;20068;-73
2022/10/05 00:59:55;;;;;;;0.20;0.20;;;15.80;99.90;;;;;;5054636;28;20049;-73
2022/10/05 01:02:34;;;;;;;0.10;0.10;;;15.80;99.90;;;;;;5054200;28;20087;-74
2022/10/05 01:05:13;;;;;;;0.20;0.20;;;15.80;99.90;;;;;;5035353;28;20044;-74
2022/10/05 01:08:03;;;;;;;0.10;0.10;;;15.70;99.90;;;;;;5034882;28;20053;-73
2022/10/05 01:10:45;;;;;;;0.20;0.20;;;15.70;99.90;;;;;;5066208;28;20056;-73
2022/10/05 01:13:31;;;;;;;0.20;0.20;;;15.70;99.90;;;;;;5068072;28;20040;-74
2022/10/05 01:16:09;;;;;;;0.20;0.20;;;15.70;99.90;;;;;;5053774;28;20052;-74
2022/10/05 01:18:59;;;;;;;0.20;0.20;;;15.70;99.90;;;;;;5065722;28;20119;-74
2022/10/05 01:21:27;;;;;;;0.10;0.10;;;15.70;99.90;;;;;;5039581;28;20041;-74
2022/10/05 01:24:29;;;;;;;0.20;0.20;;;15.80;99.90;;;;;;5057039;28;20059;-74
2022/10/05 01:27:24;;;;;;;0.20;0.20;;;15.70;99.90;;;;;;5034147;28;20157;-74
2022/10/05 01:30:00;;;;;;;0.20;0.20;;;15.70;99.90;;;;;;5016064;28;20496;-74
2022/10/05 01:32:29;;;;;;;0.20;0.20;;;15.70;99.90;;;;;;5059019;28;20037;-74
2022/10/05 01:35:16;;;;;;;0.20;0.20;;;15.80;99.90;;;;;;5051233;28;21677;-73
2022/10/05 01:37:50;;;;;;;0.10;0.10;;;15.70;99.90;;;;;;5037544;28;20052;-74
2022/10/05 01:40:28;;;;;;;0.10;0.10;;;15.70;99.90;;;;;;5034470;28;20044;-73
2022/10/05 01:42:59;;;;;;;0.20;0.20;;;15.70;99.90;;;;;;5054200;28;20049;-73
2022/10/05 01:45:40;;;;;;;0.20;0.20;;;15.80;99.90;;;;;;5036085;28;20117;-74
2022/10/05 01:48:16;;;;;;;0.20;0.20;;;15.70;99.90;;;;;;5030985;28;20131;-73
2022/10/05 01:51:03;;;;;;;0.10;0.10;;;15.70;99.90;;;;;;5047780;28;20314;-73
2022/10/05 01:53:48;;;;;;;0.20;0.20;;;15.70;99.90;;;;;;5050261;28;20488;-72
2022/10/05 01:56:20;;;;;;;0.10;0.10;;;15.70;99.90;;;;;;5056305;28;20071;-73
2022/10/05 01:59:00;;;;;;;;;;;15.70;99.90;;;;;;5068826;28;20599;-73
2022/10/05 02:01:47;;;;;;;0.20;0.20;;;15.70;99.90;;;;;;5032539;28;20346;-72
2022/10/05 02:04:38;;;;;;;0.20;0.20;;;15.70;99.90;;;;;;5053352;28;20048;-72
2022/10/05 02:07:12;;;;;;;0.15;0.15;;;15.70;99.90;;;;;;5039379;28;20044;-75
2022/10/05 02:09:50;;;;;;;0.10;0.10;;;15.70;99.90;;;;;;5045635;28;20044;-72
2022/10/05 02:12:22;;;;;;;0.13;0.13;;;15.70;99.90;;;;;;5057081;28;20040;-73
2022/10/05 02:14:54;;;;;;;0.20;0.20;;;15.70;99.90;;;;;;5059051;28;20450;-74
2022/10/05 02:17:25;;;;;;;0.20;0.20;;;15.70;99.90;;;;;;5053011;28;20175;-73
2022/10/05 02:20:00;;;;;;;0.20;0.20;;;15.60;99.90;;;;;;5059221;28;20036;-73
2022/10/05 02:22:39;;;;;;;0.20;0.20;;;15.70;99.90;;;;;;5042471;28;20064;-73
2022/10/05 02:25:22;;;;;;;0.10;0.10;;;15.70;99.90;;;;;;5050451;28;20041;-73
2022/10/05 02:27:53;;;;;;;0.10;0.10;;;15.70;99.90;;;;;;5054099;28;20048;-74
2022/10/05 02:30:19;;;;;;;0.10;0.10;;;15.70;99.90;;;;;;5035149;28;20276;-73
2022/10/05 02:33:06;;;;;;;0.20;0.20;;;15.70;99.90;;;;;;5052436;28;20048;-73
2022/10/05 02:35:33;;;;;;;0.20;0.20;;;15.60;99.90;;;;;;5057204;28;20032;-74
2022/10/05 02:38:19;;;;;;;0.20;0.20;;;15.60;99.90;;;;;;5044830;28;20660;-74
2022/10/05 02:41:15;;;;;;;0.20;0.20;;;15.60;99.90;;;;;;5057761;28;20150;-74
2022/10/05 02:44:09;;;;;;;0.20;0.20;;;15.60;99.90;;;;;;5035370;28;20044;-74
2022/10/05 02:47:06;;;;;;;0.20;0.20;;;15.60;99.90;;;;;;5037888;28;20127;-73
2022/10/05 02:49:50;;;;;;;0.10;0.10;;;15.60;99.90;;;;;;5033350;28;20072;-74
2022/10/05 02:52:48;;;;;;;0.20;0.20;;;15.60;99.90;;;;;;5052493;28;20090;-73
2022/10/05 02:55:22;;;;;;;0.20;0.20;;;15.60;99.90;;;;;;5046405;28;20052;-73
2022/10/05 02:57:59;;;;;;;0.10;0.10;;;15.60;99.90;;;;;;5032910;28;20171;-74
2022/10/05 03:00:26;;;;;;;0.20;0.20;;;15.60;99.90;;;;;;5051604;28;20049;-73
2022/10/05 03:03:19;;;;;;;0.10;0.10;;;15.70;99.90;;;;;;5034275;28;20055;-73
2022/10/05 03:05:55;;;;;;;0.10;0.10;;;15.60;99.90;;;;;;5051748;28;20094;-74
2022/10/05 03:08:34;;;;;;;0.10;0.10;;;15.60;99.90;;;;;;5053629;28;20037;-73
2022/10/05 03:11:31;;;;;;;0.10;0.10;;;15.60;99.90;;;;;;5027223;28;20064;-73
2022/10/05 03:14:08;;;;;;;0.20;0.20;;;15.60;99.90;;;;;;5036212;28;20233;-74
2022/10/05 03:16:42;;;;;;;0.10;0.10;;;15.60;99.90;;;;;;5032315;28;20063;-74
2022/10/05 03:19:16;;;;;;;0.20;0.20;;;15.60;99.90;;;;;;5056937;28;20421;-73
2022/10/05 03:21:51;;;;;;;0.10;0.10;;;15.50;99.90;;;;;;5037233;28;20055;-73
2022/10/05 03:24:28;;;;;;;0.20;0.20;;;15.70;99.90;;;;;;5031697;28;20040;-74
2022/10/05 03:27:19;;;;;;;0.20;0.20;;;15.70;99.90;;;;;;5055762;28;20040;-74
2022/10/05 03:30:03;;;;;;;0.10;0.10;;;15.60;99.90;;;;;;5044967;28;20048;-73
2022/10/05 03:32:58;;;;;;;0.20;0.20;;;15.70;99.90;;;;;;5049228;28;20710;-73
2022/10/05 03:35:47;;;;;;;0.10;0.10;;;15.60;99.90;;;;;;5053047;28;20111;-74
2022/10/05 03:39:00;;;;;;;0.13;0.13;;;15.60;99.90;;;;;;5054941;28;20083;-73
2022/10/05 03:41:55;;;;;;;0.10;0.10;;;15.70;99.90;;;;;;5039358;28;20056;-74
2022/10/05 03:44:41;;;;;;;0.20;0.20;;;15.70;99.90;;;;;;5058873;28;20055;-74
2022/10/05 03:47:13;;;;;;;0.20;0.20;;;15.60;99.90;;;;;;5049326;28;20044;-72
2022/10/05 03:49:42;;;;;;;0.10;0.10;;;15.60;99.90;;;;;;5081640;28;20115;-73
2022/10/05 03:52:34;;;;;;;0.20;0.20;;;15.60;99.90;;;;;;5048475;28;21847;-73
2022/10/05 03:55:29;;;;;;;0.20;0.20;;;15.60;99.90;;;;;;5047002;28;20512;-74
2022/10/05 03:57:58;;;;;;;0.10;0.10;;;15.60;99.90;;;;;;5046939;28;20126;-75
2022/10/05 04:00:27;;;;;;;0.20;0.20;;;15.60;99.90;;;;;;5063848;28;20044;-75
2022/10/05 04:03:10;;;;;;;0.10;0.10;;;15.60;99.90;;;;;;5042452;28;20049;-73
2022/10/05 04:05:48;;;;;;;0.20;0.20;;;15.60;99.90;;;;;;5040020;28;20048;-74
2022/10/05 04:08:34;;;;;;;0.10;0.10;;;15.60;99.90;;;;;;5049439;28;20052;-74
2022/10/05 04:11:11;;;;;;;0.10;0.10;;;15.60;99.90;;;;;;5048201;28;20487;-74
2022/10/05 04:13:45;;;;;;;0.20;0.20;;;15.50;99.90;;;;;;5047815;28;20041;-74
2022/10/05 04:16:13;;;;;;;0.20;0.20;;;15.70;99.90;;;;;;5057788;28;20048;-74
2022/10/05 04:18:49;;;;;;;0.30;0.30;;;15.60;99.90;;;;;;5051303;28;20044;-74
2022/10/05 04:21:32;;;;;;;0.20;0.20;;;15.50;99.90;;;;;;5044272;28;20133;-74
2022/10/05 04:24:05;;;;;;;0.20;0.20;;;15.50;99.90;;;;;;5052977;28;20067;-74
2022/10/05 04:26:39;;;;;;;0.20;0.20;;;15.50;99.90;;;;;;5037272;28;20087;-74
2022/10/05 04:29:24;;;;;;;0.20;0.20;;;15.50;99.90;;;;;;5052804;28;20596;-74
2022/10/05 04:32:04;;;;;;;0.13;0.13;;;15.50;99.90;;;;;;5035146;28;20044;-74
2022/10/05 04:34:36;;;;;;;0.10;0.10;;;15.50;99.90;;;;;;5038465;28;20072;-74
2022/10/05 04:37:09;;;;;;;0.10;0.10;;;15.50;99.90;;;;;;5048294;28;20114;-74
2022/10/05 04:39:59;;;;;;;0.10;0.10;;;15.50;99.90;;;;;;5042966;28;20127;-74
2022/10/05 04:42:32;;;;;;;0.10;0.10;;;15.50;99.90;;;;;;5060533;28;20506;-74
2022/10/05 04:45:03;;;;;;;0.13;0.13;;;15.50;99.90;;;;;;5031409;28;20119;-74
2022/10/05 04:47:48;;;;;;;0.20;0.20;;;15.50;99.90;;;;;;5031753;28;20052;-74
2022/10/05 04:50:25;;;;;;;0.10;0.10;;;15.50;99.90;;;;;;5058421;28;20048;-74
2022/10/05 04:53:03;;;;;;;0.20;0.20;;;15.50;99.90;;;;;;5052843;28;20692;-74
2022/10/05 04:55:38;;;;;;;0.17;0.17;;;15.50;99.90;;;;;;5049605;28;20048;-74
2022/10/05 04:58:19;;;;;;;0.20;0.20;;;15.50;99.90;;;;;;5054381;28;20183;-73
2022/10/05 05:01:19;;;;;;;0.20;0.20;;;15.50;99.90;;;;;;5057273;28;20052;-74
2022/10/05 05:04:06;;;;;;;0.20;0.20;;;15.50;99.90;;;;;;5034302;28;20176;-74
2022/10/05 05:06:41;;;;;;;0.10;0.10;;;15.50;99.90;;;;;;5043585;28;20076;-75
2022/10/05 05:09:32;;;;;;;0.17;0.17;;;15.50;99.90;;;;;;5051816;28;20069;-74
2022/10/05 05:12:16;;;;;;;0.20;0.20;;;15.40;99.90;;;;;;5064469;28;20036;-74
2022/10/05 05:15:01;;;;;;;0.20;0.20;;;15.40;99.90;;;;;;5046363;28;20060;-74
2022/10/05 05:17:49;;;;;;;0.20;0.20;;;15.40;99.90;;;;;;5047214;28;20048;-74
2022/10/05 05:20:59;;;;;;;0.10;0.10;;;15.40;99.90;;;;;;5065438;28;20048;-74
2022/10/05 05:23:50;;;;;;;0.20;0.20;;;15.40;99.90;;;;;;5009149;28;20133;-75
2022/10/05 05:26:28;;;;;;;0.20;0.20;;;15.40;99.90;;;;;;5067120;28;20041;-75
2022/10/05 05:29:27;;;;;;;0.20;0.20;;;15.40;99.90;;;;;;5067376;28;20163;-75
2022/10/05 05:32:03;;;;;;;0.20;0.20;;;15.40;99.90;;;;;;5075678;28;20045;-74
2022/10/05 05:35:10;;;;;;;0.10;0.10;;;15.40;99.90;;;;;;5063907;28;20053;-74
2022/10/05 05:38:00;;;;;;;0.20;0.20;;;15.50;99.90;;;;;;5012735;28;20048;-74
2022/10/05 05:40:35;;;;;;;0.30;0.30;;;15.40;99.90;;;;;;5066499;28;20523;-75
2022/10/05 05:43:23;;;;;;;0.20;0.20;;;15.40;99.90;;;;;;5064530;28;20073;-74
2022/10/05 05:46:00;;;;;;;0.20;0.20;;;15.30;99.90;;;;;;5061110;28;20044;-75
2022/10/05 05:48:40;;;;;;;0.10;0.10;;;15.40;99.90;;;;;;5055173;28;20073;-74
2022/10/05 05:51:08;;;;;;;0.20;0.20;;;15.40;99.90;;;;;;5045521;28;20045;-75
2022/10/05 05:53:44;;;;;;;0.20;0.20;;;15.40;99.90;;;;;;5064450;28;20554;-75
2022/10/05 05:56:11;;;;;;;0.20;0.20;;;15.30;99.90;;;;;;5047874;28;20041;-75
2022/10/05 05:58:58;;;;;;;0.10;0.10;;;15.40;99.90;;;;;;5050582;28;20127;-75
2022/10/05 06:01:37;;;;;;;0.17;0.17;;;15.40;99.90;;;;;;5045066;28;20048;-75
2022/10/05 06:04:24;;;;;;;0.20;0.20;;;15.70;99.90;;;;;;5048239;28;20486;-75
2022/10/05 06:06:52;;;;;;;0.20;0.20;;;15.30;99.90;;;;;;5058601;28;20040;-75
2022/10/05 06:09:36;;;;;;;0.17;0.17;;;15.40;99.90;;;;;;5064288;28;20044;-75
2022/10/05 06:12:30;;;;;;;0.10;0.10;;;15.40;99.90;;;;;;5058693;28;20061;-75
2022/10/05 06:15:27;;;;;;;0.20;0.20;;;15.30;99.90;;;;;;5047662;28;20060;-74
2022/10/05 06:17:57;;;;;;;0.20;0.20;;;15.30;99.90;;;;;;5049284;28;20056;-75
2022/10/05 06:20:39;;;;;;;0.20;0.20;;;15.30;99.90;;;;;;5064063;28;20401;-75
2022/10/05 06:23:40;;;;;;;0.10;0.10;;;15.40;99.90;;;;;;5059834;28;20044;-74
2022/10/05 06:26:16;;;;;;;0.20;0.20;;;15.40;99.90;;;;;;5026532;28;20139;-75
2022/10/05 06:28:46;;;;;;;0.17;0.17;;;15.40;99.90;;;;;;5068330;28;20063;-74
2022/10/05 06:31:25;;;;;;;0.20;0.20;;;15.40;99.90;;;;;;5045966;28;20092;-75
2022/10/05 06:33:52;;;;;;;0.20;0.20;;;15.40;99.90;;;;;;5065578;28;20045;-75
2022/10/05 06:36:19;;;;;;;0.20;0.20;;;15.30;99.90;;;;;;5042908;28;20048;-75
2022/10/05 06:38:56;;;;;;;0.20;0.20;;;15.40;99.90;;;;;;5056916;28;20045;-74
2022/10/05 06:41:31;;;;;;;0.20;0.20;;;15.40;99.90;;;;;;5065031;28;20048;-75
2022/10/05 06:44:12;;;;;;;0.20;0.20;;;15.40;99.90;;;;;;5062653;28;20056;-75
2022/10/05 06:46:58;;;;;;;0.20;0.20;;;15.40;99.90;;;;;;5046487;28;20157;-75
2022/10/05 06:49:35;;;;;;;0.10;0.10;;;15.40;99.90;;;;;;5061074;28;20043;-75
2022/10/05 06:52:38;;;;;;;0.20;0.20;;;15.40;99.90;;;;;;5061946;28;20158;-74
2022/10/05 06:55:23;;;;;;;0.20;0.20;;;15.40;99.90;;;;;;5017392;28;20060;-75
2022/10/05 06:58:11;;;;;;;0.10;0.10;;;15.40;99.90;;;;;;5042813;28;20051;-75
2022/10/05 07:01:14;;;;;;;0.17;0.17;;;15.40;99.90;;;;;;5047183;28;20485;-74
2022/10/05 07:03:59;;;;;;;0.10;0.10;;;15.40;99.90;;;;;;4974652;28;20518;-74
2022/10/05 07:06:38;;;;;;;0.20;0.20;;;15.40;99.90;;;;;;5057496;28;20040;-76
2022/10/05 07:09:29;;;;;;;0.20;0.20;;;15.40;99.90;;;;;;5050898;28;20075;-75
2022/10/05 07:12:10;;;;;;;0.20;0.20;;;15.40;99.90;;;;;;5074608;28;20029;-73
2022/10/05 07:14:51;;;;;;;0.20;0.20;;;15.40;99.90;;;;;;5058382;28;20503;-74
2022/10/05 07:17:36;;;;;;;0.10;0.10;;;15.40;99.90;;;;;;5067569;28;20495;-74
2022/10/05 07:20:11;;;;;;;0.20;0.20;;;15.40;99.90;;;;;;5049612;28;20128;-75
2022/10/05 07:23:12;;;;;;;0.20;0.20;;;15.40;99.90;;;;;;5069194;28;20041;-76
2022/10/05 07:26:26;;;;;;;0.17;0.17;;;15.40;99.90;;;;;;5052253;28;20067;-75
2022/10/05 07:29:31;;;;;;;0.20;0.20;;;15.50;99.90;;;;;;4987808;28;20135;-75
2022/10/05 07:32:08;;;;;;;0.20;0.20;;;15.50;99.90;;;;;;5065104;28;20057;-75
2022/10/05 07:34:48;;;;;;;0.10;0.10;;;15.50;99.90;;;;;;5067802;28;20049;-75
2022/10/05 07:37:53;;;;;;;0.20;0.20;;;15.50;99.90;;;;;;5068599;28;20041;-75
2022/10/05 07:40:28;;;;;;;0.20;0.20;;;15.50;99.90;;;;;;5069784;28;20564;-75
2022/10/05 07:43:32;;;;;;;0.15;0.15;;;15.50;99.90;;;;;;5068404;28;20036;-75
2022/10/05 07:46:16;;;;;;;0.10;0.10;;;15.50;99.90;;;;;;5068546;28;20054;-74
2022/10/05 07:49:02;;;;;;;0.10;0.10;;;15.50;99.90;;;;;;5036050;28;20049;-76
2022/10/05 07:51:30;;;;;;;0.20;0.20;;;15.60;99.90;;;;;;5060242;28;20393;-74
2022/10/05 07:54:31;;;;;;;0.20;0.20;;;15.60;99.90;;;;;;5049335;28;20055;-75
2022/10/05 07:57:08;;;;;;;0.20;0.20;;;15.60;99.90;;;;;;4967325;28;20054;-74
2022/10/05 07:59:47;;;;;;;0.20;0.20;;;15.60;99.90;;;;;;4972125;28;20046;-74
2022/10/05 08:02:32;;;;;;;0.20;0.20;;;15.60;99.90;;;;;;5032862;28;20060;-75
2022/10/05 08:05:03;;;;;;;0.15;0.15;;;15.60;99.90;;;;;;5033824;28;20242;-75
2022/10/05 08:07:33;;;;;;;0.20;0.20;;;15.60;99.90;;;;;;5044773;28;20488;-76
2022/10/05 08:10:17;;;;;;;0.20;0.20;;;15.60;99.90;;;;;;5071247;28;20040;-75
2022/10/05 08:13:23;;;;;;;0.20;0.20;;;15.60;99.90;;;;;;5073195;28;20045;-75
2022/10/05 08:15:55;;;;;;;0.20;0.20;;;15.70;99.90;;;;;;5051379;28;20060;-75
2022/10/05 08:18:49;;;;;;;0.20;0.20;;;15.70;99.90;;;;;;5051005;28;20121;-75
2022/10/05 08:21:19;;;;;;;0.20;0.20;;;15.70;99.90;;;;;;5035440;28;20115;-75
2022/10/05 08:23:47;;;;;;;0.20;0.20;;;15.70;99.90;;;;;;5052317;28;20367;-75
2022/10/05 08:26:26;;;;;;;0.20;0.20;;;15.80;99.90;;;;;;5051675;28;20126;-73
2022/10/05 08:29:10;;;;;;;0.13;0.13;;;15.80;99.90;;;;;;5054413;28;20407;-74
2022/10/05 08:31:38;;;;;;;0.20;0.20;;;15.80;99.90;;;;;;5050485;28;20106;-73
2022/10/05 08:34:22;;;;;;;0.20;0.20;;;15.80;99.90;;;;;;5051225;28;20044;-74
2022/10/05 08:36:57;;;;;;;0.10;0.10;;;15.80;99.90;;;;;;5052898;28;20489;-74
2022/10/05 08:39:28;;;;;;;0.20;0.20;;;15.80;99.90;;;;;;5033936;28;20101;-74
2022/10/05 08:42:02;;;;;;;0.20;0.20;;;15.90;99.90;;;;;;5066214;28;20048;-74
2022/10/05 08:45:09;;;;;;;0.10;0.10;;;15.90;99.90;;;;;;5071984;28;20045;-74
2022/10/05 08:47:53;;;;;;;0.20;0.20;;;15.90;99.90;;;;;;4997851;28;20058;-74
2022/10/05 08:50:45;;;;;;;0.10;0.10;;;16.00;99.90;;;;;;5045766;28;20127;-74
2022/10/05 08:53:35;;;;;;;0.20;0.20;;;16.00;99.90;;;;;;5072409;28;20052;-74
2022/10/05 08:56:01;;;;;;;0.20;0.20;;;16.00;99.90;;;;;;5059591;28;20032;-74
2022/10/05 08:58:33;;;;;;;0.20;0.20;;;16.10;99.90;;;;;;5070107;28;20326;-74
2022/10/05 09:01:04;;;;;;;0.20;0.20;;;16.10;99.90;;;;;;5047703;28;20514;-75
2022/10/05 09:04:00;;;;;;;0.20;0.20;;;16.20;99.90;;;;;;5046077;28;20493;-75
2022/10/05 09:07:03;;;;;;;0.10;0.10;;;16.20;99.90;;;;;;5045807;28;20605;-73
2022/10/05 09:10:07;;;;;;;0.10;0.10;;;16.30;99.90;;;;;;5062435;28;20071;-73
2022/10/05 09:12:54;;;;;;;0.20;0.20;;;16.30;99.90;;;;;;5049118;28;20049;-75
2022/10/05 09:15:49;;;;;;;0.20;0.20;;;16.30;99.90;;;;;;5065742;28;20495;-76
2022/10/05 09:18:41;;;;;;;0.10;0.10;;;16.30;99.90;;;;;;5050694;28;20098;-75
2022/10/05 09:21:31;;;;;;;0.10;0.10;;;16.40;99.90;;;;;;5052143;28;20044;-75
2022/10/05 09:24:25;;;;;;;0.20;0.20;;;16.50;99.90;;;;;;5052051;28;20051;-76
2022/10/05 09:26:59;;;;;;;0.10;0.10;;;16.50;99.90;;;;;;5024909;28;20065;-77
2022/10/05 09:29:50;;;;;;;0.20;0.20;;;16.60;99.90;;;;;;5054732;28;20106;-76
2022/10/05 09:32:52;;;;;;;0.10;0.10;;;16.60;99.90;;;;;;5071780;28;20068;-75
2022/10/05 09:35:24;;;;;;;0.20;0.20;;;16.60;99.90;;;;;;5052961;28;20048;-75
2022/10/05 09:38:26;;;;;;;0.20;0.20;;;16.60;99.90;;;;;;5069889;28;20040;-75
2022/10/05 09:41:08;;;;;;;0.20;0.20;;;16.60;99.90;;;;;;5058867;28;20118;-76
2022/10/05 09:44:03;;;;;;;;;;;16.60;99.90;;;;;;5050364;28;20060;-75
2022/10/05 09:46:43;;;;;;;0.20;0.20;;;16.70;99.90;;;;;;5051073;28;20396;-75
2022/10/05 09:49:20;;;;;;;0.20;0.20;;;16.70;99.90;;;;;;5042814;28;20408;-75
2022/10/05 09:52:07;;;;;;;0.20;0.20;;;16.80;99.90;;;;;;5070173;28;20400;-75
2022/10/05 09:54:55;;;;;;;0.10;0.10;;;16.80;99.90;;;;;;5069859;28;20098;-75
2022/10/05 09:57:50;;;;;;;0.13;0.13;;;16.80;99.90;;;;;;5053249;28;20067;-75
2022/10/05 10:00:22;;;;;;;0.10;0.10;;;16.90;99.90;;;;;;5069494;28;20461;-76
2022/10/05 10:03:06;;;;;;;0.20;0.20;;;17.00;99.90;;;;;;5041872;28;20044;-74
2022/10/05 10:05:49;;;;;;;0.10;0.10;;;17.10;99.90;;;;;;5037145;28;20052;-74
2022/10/05 10:08:39;;;;;;;0.20;0.20;;;17.10;99.90;;;;;;5071134;28;20047;-75
2022/10/05 10:11:46;;;;;;;0.20;0.20;;;17.10;99.90;;;;;;5050700;28;20131;-74
2022/10/05 10:14:43;;;;;;;0.20;0.20;;;17.20;99.90;;;;;;5064114;28;20052;-75
2022/10/05 10:17:21;;;;;;;0.10;0.10;;;17.20;99.90;;;;;;5049501;28;20048;-73
2022/10/05 10:19:55;;;;;;;0.20;0.20;;;17.30;99.90;;;;;;5068178;28;20452;-75
2022/10/05 10:22:48;;;;;;;0.20;0.20;;;17.30;99.90;;;;;;5052141;28;20067;-75
2022/10/05 10:25:35;;;;;;;0.20;0.20;;;17.30;99.90;;;;;;5053204;28;20067;-75
2022/10/05 10:28:13;;;;;;;0.10;0.10;;;17.30;99.90;;;;;;5052656;28;20079;-73
2022/10/05 10:30:52;;;;;;;0.10;0.10;;;17.30;99.90;;;;;;5060254;28;20122;-74
2022/10/05 10:33:33;;;;;;;0.20;0.20;;;17.20;99.90;;;;;;5064330;28;20048;-74
2022/10/05 10:36:17;;;;;;;0.13;0.13;;;17.20;99.90;;;;;;5070877;28;20044;-75
2022/10/05 10:39:03;;;;;;;0.20;0.20;;;17.10;99.90;;;;;;5079674;28;20407;-75
2022/10/05 10:41:31;;;;;;;0.10;0.10;;;17.10;99.90;;;;;;5048457;28;20076;-77
2022/10/05 10:44:21;;;;;;;0.10;0.10;;;17.00;99.90;;;;;;5052525;28;20044;-75
2022/10/05 10:47:02;;;;;;;0.20;0.20;;;17.00;99.90;;;;;;5044347;28;20146;-75
2022/10/05 10:50:04;;;;;;;0.70;0.68;;;17.00;99.90;;;;;;5068947;28;20131;-75
2022/10/05 10:53:09;;;;;;;0.20;0.20;;;16.90;99.90;;;;;;5035562;28;20438;-74
2022/10/05 10:56:13;;;;;;;0.20;0.20;;;16.90;99.90;;;;;;5046025;28;20490;-74
2022/10/05 10:59:03;;;;;;;0.20;0.20;;;16.80;99.90;;;;;;5068117;28;20047;-74
2022/10/05 11:01:47;;;;;;;0.20;0.20;;;16.80;99.90;;;;;;5051361;28;20095;-74
2022/10/05 11:04:34;;;;;;;0.20;0.20;;;16.80;99.90;;;;;;5067826;28;20048;-75
2022/10/05 11:07:22;;;;;;;0.20;0.20;;;16.80;99.90;;;;;;5043942;28;20032;-75
2022/10/05 11:10:29;;;;;;;0.20;0.20;;;16.80;99.90;;;;;;5051385;28;20376;-74
2022/10/05 11:13:28;;;;;;;0.22;0.22;;;16.80;99.90;;;;;;5066193;28;20106;-74
2022/10/05 11:16:14;;;;;;;0.20;0.20;;;16.80;99.90;;;;;;5049262;28;20048;-75
2022/10/05 11:19:27;;;;;;;0.13;0.13;;;16.80;99.90;;;;;;5067866;28;20098;-74
2022/10/05 11:22:12;;;;;;;0.10;0.10;;;16.80;99.90;;;;;;5050391;28;20051;-74
2022/10/05 11:25:04;;;;;;;0.20;0.20;;;16.80;99.90;;;;;;5049292;28;20126;-75
2022/10/05 11:27:54;;;;;;;0.20;0.20;;;16.70;99.90;;;;;;5069389;28;20484;-75
2022/10/05 11:30:49;;;;;;;0.20;0.20;;;16.70;99.90;;;;;;5051961;28;20083;-75
2022/10/05 11:33:57;;;;;;;0.10;0.10;;;16.70;99.90;;;;;;5048002;28;20049;-75
2022/10/05 11:36:41;;;;;;;0.20;0.20;;;16.70;99.90;;;;;;5056663;28;20037;-75
2022/10/05 11:39:38;;;;;;;0.20;0.20;;;16.70;99.90;;;;;;5056829;28;20052;-75
2022/10/05 11:42:29;;;;;;;0.20;0.20;;;16.70;99.90;;;;;;5075952;28;20045;-74
2022/10/05 11:45:22;;;;;;;0.20;0.20;;;16.70;99.90;;;;;;5056326;28;20140;-74
2022/10/05 11:47:57;;;;;;;0.20;0.20;;;16.70;99.90;;;;;;5074513;28;20052;-74
2022/10/05 11:50:53;;;;;;;0.20;0.20;;;16.60;99.90;;;;;;5053328;28;20049;-74
2022/10/05 11:54:01;;;;;;;0.13;0.13;;;16.70;99.90;;;;;;5069511;28;20040;-74
2022/10/05 11:56:33;;;;;;;0.20;0.20;;;16.60;99.90;;;;;;5067270;28;20534;-75
2022/10/05 11:59:13;;;;;;;0.20;0.20;;;16.60;99.90;;;;;;5058587;28;20094;-75
2022/10/05 12:02:01;;;;;;;0.20;0.20;;;16.60;99.90;;;;;;5049887;28;20047;-77
2022/10/05 12:04:32;;;;;;;0.20;0.20;;;16.60;99.90;;;;;;5076087;28;20396;-76
2022/10/05 12:07:13;;;;;;;0.10;0.10;;;16.70;99.90;;;;;;5061038;28;20048;-73
2022/10/05 12:10:13;;;;;;;0.20;0.20;;;16.60;99.90;;;;;;5086916;28;20082;-74
2022/10/05 12:12:59;;;;;;;0.13;0.13;;;16.60;99.90;;;;;;5067252;28;20087;-74
2022/10/05 12:15:33;;;;;;;0.20;0.20;;;16.70;99.90;;;;;;5056370;28;20080;-75
2022/10/05 12:18:07;;;;;;;0.15;0.15;;;16.60;99.90;;;;;;5071657;28;20083;-75
2022/10/05 12:21:02;;;;;;;0.20;0.20;;;16.60;99.90;;;;;;5072547;28;20040;-75
2022/10/05 12:23:40;;;;;;;0.20;0.20;;;16.60;99.90;;;;;;5005400;28;20058;-75
2022/10/05 12:26:13;;;;;;;0.20;0.20;;;16.70;99.90;;;;;;5059966;28;20087;-76
2022/10/05 12:28:50;;;;;;;0.20;0.20;;;16.70;99.90;;;;;;5081729;28;20095;-75
2022/10/05 12:31:40;;;;;;;0.10;0.10;;;16.70;99.90;;;;;;5073584;28;20055;-76
2022/10/05 12:34:31;;;;;;;0.20;0.20;;;16.70;99.90;;;;;;5044682;28;20052;-75
2022/10/05 12:37:13;;;;;;;0.20;0.20;;;16.70;99.90;;;;;;5070564;28;20056;-74
2022/10/05 12:40:02;;;;;;;0.20;0.20;;;16.80;99.90;;;;;;5070713;28;20051;-75
2022/10/05 12:42:40;;;;;;;0.20;0.20;;;16.80;99.90;;;;;;5063641;28;20080;-75
2022/10/05 12:45:26;;;;;;;0.20;0.20;;;16.80;99.90;;;;;;5052879;28;20081;-75
2022/10/05 12:48:17;;;;;;;0.20;0.20;;;16.80;99.90;;;;;;5067998;28;20420;-74
2022/10/05 12:51:01;;;;;;;0.20;0.20;;;16.80;99.90;;;;;;5035402;28;20147;-75
2022/10/05 12:53:39;;;;;;;0.20;0.20;;;16.80;99.90;;;;;;5069655;28;20056;-75
2022/10/05 12:56:50;;;;;;;0.20;0.20;;;16.80;99.90;;;;;;5064653;28;20140;-74
2022/10/05 12:59:36;;;;;;;0.20;0.20;;;16.80;99.90;;;;;;5019891;28;20052;-75
2022/10/05 13:02:29;;;;;;;0.10;0.10;;;16.80;99.90;;;;;;5072654;28;20047;-75
2022/10/05 13:05:10;;;;;;;0.10;0.10;;;16.80;99.90;;;;;;5052510;28;20049;-75
2022/10/05 13:07:51;;;;;;;0.20;0.20;;;16.80;99.90;;;;;;5053704;28;20043;-76
2022/10/05 13:10:42;;;;;;;0.20;0.20;;;16.80;99.90;;;;;;5038566;28;20072;-76
2022/10/05 13:13:46;;;;;;;0.20;0.20;;;16.80;99.90;;;;;;5051559;28;20045;-76
2022/10/05 13:16:27;;;;;;;0.20;0.20;;;16.80;99.90;;;;;;5022102;28;20049;-74
2022/10/05 13:19:06;;;;;;;0.10;0.10;;;16.80;99.90;;;;;;5069887;28;20040;-75
2022/10/05 13:22:13;;;;;;;0.20;0.20;;;16.80;99.90;;;;;;5050994;28;20047;-74
2022/10/05 13:25:06;;;;;;;0.13;0.13;;;16.90;99.90;;;;;;4998591;28;20092;-76
2022/10/05 13:27:38;;;;;;;0.20;0.20;;;16.90;99.90;;;;;;5033604;28;20132;-75
2022/10/05 13:30:13;;;;;;;0.10;0.10;;;16.90;99.90;;;;;;5051604;28;20386;-75
2022/10/05 13:32:47;;;;;;;0.15;0.15;;;17.00;99.90;;;;;;5051083;28;20040;-75
2022/10/05 13:35:31;;;;;;;0.20;0.20;;;17.00;99.90;;;;;;5051838;28;20045;-75
2022/10/05 13:38:12;;;;;;;0.20;0.20;;;17.10;99.90;;;;;;5034041;28;20132;-75
2022/10/05 13:41:04;;;;;;;0.20;0.20;;;17.10;99.90;;;;;;5033611;28;20075;-75
2022/10/05 13:43:42;;;;;;;0.20;0.20;;;17.10;99.90;;;;;;5034275;28;20049;-75
2022/10/05 13:46:32;;;;;;;0.20;0.20;;;17.10;99.90;;;;;;5058314;28;20083;-76
2022/10/05 13:49:03;;;;;;;0.20;0.20;;;17.10;99.90;;;;;;5065568;28;20078;-75
2022/10/05 13:51:40;;;;;;;0.20;0.20;;;17.10;99.90;;;;;;5071930;28;20102;-76
2022/10/05 13:54:32;;;;;;;0.20;0.20;;;17.20;99.90;;;;;;5070296;28;20680;-75
2022/10/05 13:57:16;;;;;;;0.20;0.20;;;17.30;99.90;;;;;;5052372;28;20040;-75
2022/10/05 13:59:57;;;;;;;0.20;0.20;;;17.40;99.90;;;;;;5052284;28;20433;-76
2022/10/05 14:02:34;;;;;;;0.20;0.20;;;17.50;99.90;;;;;;5067768;28;20044;-75
2022/10/05 14:05:12;;;;;;;0.20;0.20;;;17.60;99.90;;;;;;5060605;28;20090;-75
2022/10/05 14:08:01;;;;;;;0.20;0.20;;;17.60;99.90;;;;;;5068512;28;20040;-76
2022/10/05 14:10:36;;;;;;;0.13;0.13;;;17.60;99.90;;;;;;5007797;28;20436;-75
2022/10/05 14:13:25;;;;;;;0.20;0.20;;;17.60;99.90;;;;;;5032767;28;20045;-75